createdAt,value
2023-06-10T00:01:08.305Z,88.20
2023-06-10T00:03:56.216Z,88.08
2023-06-10T00:06:25.585Z,87.86
2023-06-10T00:08:53.593Z,87.87
2023-06-10T00:11:22.778Z,87.86
2023-06-10T00:13:51.076Z,87.92
2023-06-10T00:16:19.961Z,88.17
2023-06-10T00:18:48.462Z,88.03
2023-06-10T00:21:16.625Z,87.63
2023-06-10T00:23:44.819Z,87.64
2023-06-10T00:26:12.706Z,87.58
2023-06-10T00:28:40.628Z,87.62
2023-06-10T00:31:08.584Z,87.57
2023-06-10T00:33:36.761Z,87.49
2023-06-10T00:36:05.036Z,87.85
2023-06-10T00:38:33.260Z,87.45
2023-06-10T00:41:01.624Z,87.30
2023-06-10T00:43:29.381Z,87.21
2023-06-10T00:45:57.821Z,87.41
2023-06-10T00:48:26.423Z,87.77
2023-06-10T00:50:54.663Z,88.20
2023-06-10T00:53:23.998Z,88.36
2023-06-10T00:55:51.870Z,88.32
2023-06-10T00:58:20.308Z,88.62
2023-06-10T01:00:48.343Z,88.59
2023-06-10T01:03:18.532Z,88.26
2023-06-10T01:05:56.432Z,87.88
2023-06-10T01:08:42.999Z,87.67
2023-06-10T01:11:20.368Z,88.09
2023-06-10T01:13:52.398Z,88.11
2023-06-10T01:16:21.682Z,87.74
2023-06-10T01:18:49.453Z,87.54
2023-06-10T01:21:27.494Z,87.89
2023-06-10T01:23:56.882Z,88.14
2023-06-10T01:26:30.462Z,88.76
2023-06-10T01:29:07.337Z,88.60
2023-06-10T01:32:05.156Z,89.11
2023-06-10T01:34:33.962Z,89.46
2023-06-10T01:37:04.943Z,89.64
2023-06-10T01:39:33.698Z,89.66
2023-06-10T01:42:03.470Z,89.79
2023-06-10T01:44:31.303Z,89.83
2023-06-10T01:46:59.279Z,89.82
2023-06-10T01:49:28.059Z,90.11
2023-06-10T01:51:55.927Z,90.10
2023-06-10T01:54:23.706Z,90.02
2023-06-10T01:56:51.607Z,90.28
2023-06-10T01:59:19.350Z,89.96
2023-06-10T02:01:47.430Z,89.50
2023-06-10T02:04:15.905Z,89.30
2023-06-10T02:06:43.751Z,89.47
2023-06-10T02:09:11.678Z,89.59
2023-06-10T02:11:39.473Z,89.28
2023-06-10T02:14:07.226Z,89.38
2023-06-10T02:16:35.130Z,89.60
2023-06-10T02:19:06.993Z,89.86
2023-06-10T02:21:35.571Z,89.83
2023-06-10T02:24:04.210Z,89.69
2023-06-10T02:26:32.963Z,89.78
2023-06-10T02:29:01.042Z,90.02
2023-06-10T02:31:30.023Z,90.22
2023-06-10T02:33:58.103Z,90.80
2023-06-10T02:36:29.203Z,90.82
2023-06-10T02:38:57.092Z,90.80
2023-06-10T02:41:26.211Z,90.70
2023-06-10T02:43:54.054Z,90.49
2023-06-10T02:46:22.317Z,89.80
2023-06-10T02:48:52.914Z,89.64
2023-06-10T02:51:20.774Z,90.15
2023-06-10T02:53:48.672Z,90.38
2023-06-10T02:56:19.950Z,90.17
2023-06-10T02:58:48.030Z,89.96
2023-06-10T03:01:16.320Z,89.65
2023-06-10T03:03:44.262Z,89.60
2023-06-10T03:06:12.134Z,89.66
2023-06-10T03:08:41.349Z,90.08
2023-06-10T03:11:09.560Z,90.57
2023-06-10T03:13:37.419Z,90.85
2023-06-10T03:16:05.762Z,90.72
2023-06-10T03:18:33.837Z,90.43
2023-06-10T03:21:01.689Z,90.22
2023-06-10T03:23:30.155Z,90.17
2023-06-10T03:25:57.990Z,90.08
2023-06-10T03:28:25.755Z,89.52
2023-06-10T03:30:53.603Z,89.86
2023-06-10T03:33:21.540Z,89.48
2023-06-10T03:35:49.416Z,89.15
2023-06-10T03:38:17.598Z,89.35
2023-06-10T03:40:45.484Z,89.64
2023-06-10T03:43:13.232Z,89.56
2023-06-10T03:45:42.237Z,89.80
2023-06-10T03:48:10.442Z,89.56
2023-06-10T03:50:38.439Z,89.40
2023-06-10T03:53:06.221Z,89.95
2023-06-10T03:55:34.358Z,90.03
2023-06-10T03:58:02.295Z,90.03
2023-06-10T04:00:31.103Z,89.51
2023-06-10T04:02:59.691Z,89.33
2023-06-10T04:05:29.692Z,89.37
2023-06-10T04:07:58.036Z,88.78
2023-06-10T04:10:26.427Z,88.75
2023-06-10T04:12:54.277Z,88.72
2023-06-10T04:15:22.689Z,89.07
2023-06-10T04:17:50.596Z,89.13
2023-06-10T04:20:18.452Z,88.77
2023-06-10T04:22:46.353Z,87.93
2023-06-10T04:25:14.116Z,87.96
2023-06-10T04:27:41.981Z,87.11
2023-06-10T04:30:10.704Z,86.90
2023-06-10T04:32:38.716Z,87.39
2023-06-10T04:35:07.589Z,87.66
2023-06-10T04:37:35.800Z,87.52
2023-06-10T04:40:04.394Z,86.54
2023-06-10T04:42:32.187Z,86.86
2023-06-10T04:44:59.962Z,86.52
2023-06-10T04:47:27.990Z,86.59
2023-06-10T04:49:56.287Z,86.79
2023-06-10T04:52:25.545Z,87.08
2023-06-10T04:54:53.712Z,87.13
2023-06-10T04:57:22.268Z,87.05
2023-06-10T04:59:50.140Z,86.86
2023-06-10T05:02:18.363Z,86.26
2023-06-10T05:04:46.429Z,86.25
2023-06-10T05:07:14.429Z,86.50
2023-06-10T05:09:42.444Z,86.69
2023-06-10T05:12:10.573Z,86.56
2023-06-10T05:14:38.471Z,86.03
2023-06-10T05:17:07.334Z,86.29
2023-06-10T05:19:36.855Z,86.62
2023-06-10T05:22:05.119Z,86.50
2023-06-10T05:24:33.028Z,86.46
2023-06-10T05:27:01.138Z,86.67
2023-06-10T05:29:29.046Z,86.71
2023-06-10T05:31:58.802Z,86.52
2023-06-10T05:34:26.848Z,86.30
2023-06-10T05:36:54.721Z,86.43
2023-06-10T05:39:22.573Z,85.86
2023-06-10T05:41:50.538Z,85.45
2023-06-10T05:44:18.470Z,85.40
2023-06-10T05:46:46.446Z,85.41
2023-06-10T05:49:14.541Z,85.41
2023-06-10T05:51:42.636Z,85.41
2023-06-10T05:54:10.623Z,85.87
2023-06-10T05:56:38.473Z,85.78
2023-06-10T05:59:06.410Z,85.87
2023-06-10T06:01:34.510Z,85.81
2023-06-10T06:04:02.325Z,85.78
2023-06-10T06:06:30.135Z,85.97
2023-06-10T06:08:58.395Z,85.92
2023-06-10T06:11:27.502Z,85.61
2023-06-10T06:13:55.445Z,85.63
2023-06-10T06:16:23.496Z,85.38
2023-06-10T06:18:51.579Z,85.08
2023-06-10T06:21:19.411Z,84.77
2023-06-10T06:23:47.497Z,85.06
2023-06-10T06:26:15.508Z,85.35
2023-06-10T06:28:44.185Z,85.38
2023-06-10T06:31:12.285Z,85.13
2023-06-10T06:33:40.167Z,84.81
2023-06-10T06:36:08.159Z,84.63
2023-06-10T06:38:36.012Z,84.57
2023-06-10T06:41:06.297Z,84.27
2023-06-10T06:43:34.439Z,84.02
2023-06-10T06:46:02.460Z,84.20
2023-06-10T06:48:30.773Z,84.22
2023-06-10T06:50:59.581Z,84.28
2023-06-10T06:53:30.114Z,84.38
2023-06-10T06:55:59.826Z,84.06
2023-06-10T06:58:27.748Z,84.00
2023-06-10T07:00:55.753Z,83.74
2023-06-10T07:03:23.660Z,83.58
2023-06-10T07:05:51.658Z,83.64
2023-06-10T07:08:19.664Z,83.45
2023-06-10T07:10:47.669Z,83.68
2023-06-10T07:13:16.026Z,83.34
2023-06-10T07:15:43.900Z,83.57
2023-06-10T07:18:11.860Z,83.18
2023-06-10T07:20:39.765Z,82.63
2023-06-10T07:23:07.898Z,82.61
2023-06-10T07:25:36.047Z,82.39
2023-06-10T07:28:04.413Z,81.54
2023-06-10T07:30:32.269Z,80.61
2023-06-10T07:33:00.437Z,79.73
2023-06-10T07:35:28.683Z,79.18
2023-06-10T07:37:56.514Z,78.74
2023-06-10T07:40:25.238Z,78.34
2023-06-10T07:42:54.072Z,78.24
2023-06-10T07:45:22.111Z,77.10
2023-06-10T07:47:49.948Z,76.34
2023-06-10T07:50:17.877Z,74.96
2023-06-10T07:52:45.741Z,73.04
2023-06-10T07:55:13.786Z,73.52
2023-06-10T07:57:42.033Z,72.73
2023-06-10T08:00:10.914Z,71.84
2023-06-10T08:02:38.858Z,70.57
2023-06-10T08:05:07.642Z,68.92
2023-06-10T08:07:35.688Z,69.06
2023-06-10T08:10:05.207Z,69.46
2023-06-10T08:12:33.791Z,69.01
2023-06-10T08:15:02.461Z,69.16
2023-06-10T08:17:30.910Z,68.91
2023-06-10T08:19:58.760Z,68.05
2023-06-10T08:22:30.493Z,67.32
2023-06-10T08:24:58.515Z,65.54
2023-06-10T08:27:26.567Z,66.65
2023-06-10T08:30:03.344Z,67.23
2023-06-10T08:32:31.306Z,66.44
2023-06-10T08:34:59.022Z,64.96
2023-06-10T08:37:26.977Z,64.91
2023-06-10T08:39:55.113Z,64.57
2023-06-10T08:42:28.135Z,65.32
2023-06-10T08:44:57.429Z,64.62
2023-06-10T08:47:26.671Z,62.50
2023-06-10T08:49:57.865Z,60.36
2023-06-10T08:52:27.560Z,59.01
2023-06-10T08:55:03.943Z,58.73
2023-06-10T08:57:32.304Z,59.94
2023-06-10T09:00:01.133Z,59.08
2023-06-10T09:02:29.465Z,58.14
2023-06-10T09:04:58.576Z,58.07
2023-06-10T09:07:27.118Z,56.90
2023-06-10T09:09:56.053Z,57.15
2023-06-10T09:12:24.103Z,56.15
2023-06-10T09:14:52.074Z,56.29
2023-06-10T09:17:20.081Z,56.20
2023-06-10T09:19:48.821Z,54.70
2023-06-10T09:22:16.867Z,54.82
2023-06-10T09:24:44.802Z,52.95
2023-06-10T09:27:12.718Z,53.42
2023-06-10T09:29:53.845Z,53.55
2023-06-10T09:32:22.969Z,53.93
2023-06-10T09:34:52.304Z,53.45
2023-06-10T09:37:24.977Z,52.49
2023-06-10T09:40:04.256Z,52.45
2023-06-10T09:42:36.509Z,52.29
2023-06-10T09:45:05.810Z,52.20
2023-06-10T09:47:33.950Z,52.46
2023-06-10T09:50:02.898Z,52.46
2023-06-10T09:52:31.131Z,51.50
2023-06-10T09:55:03.210Z,50.67
2023-06-10T09:57:37.514Z,51.49
2023-06-10T10:00:15.478Z,51.51
2023-06-10T10:02:48.540Z,52.27
2023-06-10T10:05:17.855Z,52.05
2023-06-10T10:07:46.985Z,51.99
2023-06-10T10:10:16.886Z,52.67
2023-06-10T10:12:49.194Z,53.18
2023-06-10T10:15:18.772Z,53.11
2023-06-10T10:18:08.742Z,52.68
2023-06-10T10:20:47.860Z,51.23
2023-06-10T10:23:22.720Z,51.06
2023-06-10T10:25:53.448Z,51.72
2023-06-10T10:28:25.588Z,51.66
2023-06-10T10:30:58.461Z,52.00
2023-06-10T10:33:36.319Z,53.27
2023-06-10T10:36:04.830Z,52.34
2023-06-10T10:38:33.329Z,52.33
2023-06-10T10:41:02.717Z,52.55
2023-06-10T10:43:31.704Z,53.77
2023-06-10T10:46:01.973Z,54.47
2023-06-10T10:48:39.479Z,55.22
2023-06-10T10:51:09.342Z,56.14
2023-06-10T10:53:40.998Z,57.04
2023-06-10T10:56:14.772Z,57.27
2023-06-10T10:58:42.833Z,57.27
2023-06-10T11:01:16.108Z,57.53
2023-06-10T11:03:48.670Z,57.96
2023-06-10T11:06:19.357Z,58.15
2023-06-10T11:08:48.935Z,58.24
2023-06-10T11:11:26.918Z,58.51
2023-06-10T11:14:07.769Z,60.16
2023-06-10T11:16:43.456Z,62.13
2023-06-10T11:19:11.478Z,63.25
2023-06-10T11:22:00.241Z,64.21
2023-06-10T11:24:31.107Z,65.33
2023-06-10T11:27:25.504Z,66.42
2023-06-10T11:30:08.753Z,66.69
2023-06-10T11:32:36.958Z,67.91
2023-06-10T11:35:05.827Z,69.11
2023-06-10T11:37:33.915Z,69.58
2023-06-10T11:40:03.180Z,70.78
2023-06-10T11:42:31.569Z,71.65
2023-06-10T11:44:59.682Z,72.41
2023-06-10T11:47:28.107Z,73.15
2023-06-10T11:49:59.816Z,73.77
2023-06-10T11:52:39.178Z,74.24
2023-06-10T11:55:10.940Z,74.69
2023-06-10T11:57:39.382Z,75.43
2023-06-10T12:00:08.557Z,75.70
2023-06-10T12:02:36.616Z,75.50
2023-06-10T12:05:14.401Z,74.79
2023-06-10T12:07:42.524Z,74.94
2023-06-10T12:10:26.390Z,75.16
2023-06-10T12:12:54.586Z,75.21
2023-06-10T12:15:26.664Z,74.58
2023-06-10T12:17:54.585Z,73.94
2023-06-10T12:20:31.769Z,74.54
2023-06-10T12:23:01.435Z,73.75
2023-06-10T12:25:30.241Z,73.21
2023-06-10T12:27:59.306Z,73.01
2023-06-10T12:30:28.440Z,72.52
2023-06-10T12:32:57.813Z,71.40
2023-06-10T12:35:28.716Z,71.08
2023-06-10T12:38:02.258Z,71.53
2023-06-10T12:40:36.222Z,71.97
2023-06-10T12:43:04.673Z,72.50
2023-06-10T12:45:36.448Z,72.62
2023-06-10T12:48:10.932Z,73.38
2023-06-10T12:50:42.577Z,74.12
2023-06-10T12:53:15.860Z,74.34
2023-06-10T12:55:46.307Z,74.89
2023-06-10T12:58:14.618Z,74.57
2023-06-10T13:00:43.552Z,74.65
2023-06-10T13:03:11.884Z,74.06
2023-06-10T13:05:40.206Z,73.01
2023-06-10T13:08:11.146Z,71.56
2023-06-10T13:10:39.747Z,72.05
2023-06-10T13:13:10.768Z,72.12
2023-06-10T13:15:43.157Z,72.16
2023-06-10T13:18:12.252Z,71.55
2023-06-10T13:20:40.597Z,70.20
2023-06-10T13:23:08.613Z,68.44
2023-06-10T13:25:36.441Z,68.08
2023-06-10T13:28:04.452Z,67.19
2023-06-10T13:30:32.411Z,65.73
2023-06-10T13:33:00.592Z,65.18
2023-06-10T13:35:28.590Z,65.99
2023-06-10T13:37:57.016Z,64.95
2023-06-10T13:40:25.457Z,64.03
2023-06-10T13:42:55.318Z,64.10
2023-06-10T13:45:23.592Z,63.50
2023-06-10T13:47:51.972Z,61.73
2023-06-10T13:50:19.952Z,62.28
2023-06-10T13:52:48.235Z,61.30
2023-06-10T13:55:20.075Z,58.80
2023-06-10T13:57:47.964Z,57.93
2023-06-10T14:00:16.456Z,57.05
2023-06-10T14:02:44.480Z,55.08
2023-06-10T14:05:12.570Z,54.02
2023-06-10T14:07:41.900Z,54.72
2023-06-10T14:10:10.558Z,55.24
2023-06-10T14:12:38.680Z,55.09
2023-06-10T14:15:07.229Z,53.81
2023-06-10T14:17:35.407Z,52.06
2023-06-10T14:20:03.532Z,52.53
2023-06-10T14:22:31.624Z,52.34
2023-06-10T14:24:59.615Z,50.70
2023-06-10T14:27:27.418Z,50.31
2023-06-10T14:29:55.385Z,50.60
2023-06-10T14:32:23.345Z,50.77
2023-06-10T14:34:52.025Z,50.53
2023-06-10T14:37:19.962Z,49.03
2023-06-10T14:39:48.163Z,48.25
2023-06-10T14:42:16.216Z,48.53
2023-06-10T14:44:44.125Z,48.72
2023-06-10T14:47:11.969Z,48.56
2023-06-10T14:49:39.904Z,48.63
2023-06-10T14:52:08.110Z,48.35
2023-06-10T14:54:36.080Z,47.74
2023-06-10T14:57:04.211Z,46.74
2023-06-10T14:59:32.216Z,46.24
2023-06-10T15:02:01.879Z,45.46
2023-06-10T15:04:30.180Z,44.76
2023-06-10T15:06:58.142Z,44.46
2023-06-10T15:09:26.313Z,43.78
2023-06-10T15:11:54.275Z,44.29
2023-06-10T15:14:22.814Z,44.50
2023-06-10T15:16:50.864Z,44.59
2023-06-10T15:19:19.086Z,44.38
2023-06-10T15:21:47.202Z,44.12
2023-06-10T15:24:15.763Z,44.35
2023-06-10T15:26:43.946Z,45.23
2023-06-10T15:29:12.110Z,45.95
2023-06-10T15:31:39.977Z,46.63
2023-06-10T15:34:09.741Z,47.13
2023-06-10T15:36:37.951Z,48.26
2023-06-10T15:39:07.910Z,49.55
2023-06-10T15:41:36.361Z,51.24
2023-06-10T15:44:04.487Z,52.21
2023-06-10T15:46:32.905Z,53.48
2023-06-10T15:49:00.929Z,53.84
2023-06-10T15:51:29.010Z,54.29
2023-06-10T15:53:57.105Z,54.54
2023-06-10T15:56:26.157Z,54.65
2023-06-10T15:58:54.058Z,54.09
2023-06-10T16:01:22.070Z,53.76
2023-06-10T16:03:49.996Z,54.75
2023-06-10T16:06:18.161Z,54.37
2023-06-10T16:08:47.169Z,53.71
2023-06-10T16:11:15.187Z,54.50
2023-06-10T16:13:43.058Z,54.83
2023-06-10T16:16:11.231Z,54.46
2023-06-10T16:18:39.329Z,54.63
2023-06-10T16:21:07.290Z,54.95
2023-06-10T16:23:39.420Z,55.67
2023-06-10T16:26:07.718Z,56.62
2023-06-10T16:28:41.482Z,56.87
2023-06-10T16:31:11.611Z,57.02
2023-06-10T16:33:39.775Z,57.07
2023-06-10T16:36:07.812Z,57.67
2023-06-10T16:38:35.762Z,58.25
2023-06-10T16:41:03.537Z,59.26
2023-06-10T16:43:31.452Z,60.00
2023-06-10T16:45:59.592Z,60.65
2023-06-10T16:48:27.642Z,60.63
2023-06-10T16:50:55.646Z,60.36
2023-06-10T16:53:23.488Z,60.58
2023-06-10T16:55:51.288Z,60.94
2023-06-10T16:58:19.141Z,61.05
2023-06-10T17:00:47.296Z,61.39
2023-06-10T17:03:15.127Z,61.25
2023-06-10T17:05:43.632Z,61.63
2023-06-10T17:08:11.811Z,61.90
2023-06-10T17:10:39.926Z,61.62
2023-06-10T17:13:08.002Z,61.65
2023-06-10T17:15:36.360Z,62.13
2023-06-10T17:18:04.541Z,62.44
2023-06-10T17:20:33.714Z,62.37
2023-06-10T17:23:01.832Z,62.32
2023-06-10T17:25:29.722Z,62.46
2023-06-10T17:27:57.692Z,62.73
2023-06-10T17:30:26.007Z,63.40
2023-06-10T17:32:54.494Z,63.54
2023-06-10T17:35:22.448Z,63.58
2023-06-10T17:37:50.314Z,63.50
2023-06-10T17:40:18.497Z,63.51
2023-06-10T17:42:47.240Z,63.52
2023-06-10T17:45:15.586Z,64.12
2023-06-10T17:47:43.620Z,64.32
2023-06-10T17:50:11.606Z,64.31
2023-06-10T17:52:39.627Z,64.75
2023-06-10T17:55:08.041Z,64.91
2023-06-10T17:57:36.252Z,65.03
2023-06-10T18:00:04.670Z,65.03
2023-06-10T18:02:32.874Z,64.79
2023-06-10T18:05:01.106Z,64.85
2023-06-10T18:07:29.151Z,65.17
2023-06-10T18:09:57.060Z,65.63
2023-06-10T18:12:25.041Z,65.63
2023-06-10T18:14:53.132Z,66.10
2023-06-10T18:17:21.190Z,66.22
2023-06-10T18:19:49.027Z,66.11
2023-06-10T18:22:16.863Z,66.27
2023-06-10T18:24:44.787Z,66.15
2023-06-10T18:27:16.629Z,66.29
2023-06-10T18:29:45.009Z,66.05
2023-06-10T18:32:13.044Z,65.78
2023-06-10T18:34:41.359Z,65.55
2023-06-10T18:37:09.241Z,65.53
2023-06-10T18:39:37.189Z,65.63
2023-06-10T18:42:07.087Z,65.77
2023-06-10T18:44:35.184Z,66.00
2023-06-10T18:47:03.279Z,65.96
2023-06-10T18:49:31.355Z,65.77
2023-06-10T18:51:59.340Z,65.77
2023-06-10T18:54:27.556Z,66.26
2023-06-10T18:56:56.579Z,66.69
2023-06-10T18:59:25.239Z,66.32
2023-06-10T19:01:53.120Z,66.39
2023-06-10T19:04:20.981Z,65.99
2023-06-10T19:06:49.233Z,66.21
2023-06-10T19:09:17.388Z,66.45
2023-06-10T19:11:45.283Z,66.49
2023-06-10T19:14:13.246Z,66.70
2023-06-10T19:16:41.642Z,67.00
2023-06-10T19:19:09.527Z,67.31
2023-06-10T19:21:37.434Z,67.56
2023-06-10T19:24:05.832Z,67.69
2023-06-10T19:26:33.694Z,67.99
2023-06-10T19:29:03.211Z,67.88
2023-06-10T19:31:31.213Z,68.07
2023-06-10T19:33:59.214Z,68.06
2023-06-10T19:36:27.428Z,68.10
2023-06-10T19:38:55.592Z,68.35
2023-06-10T19:41:24.510Z,68.57
2023-06-10T19:43:52.441Z,68.84
2023-06-10T19:46:21.706Z,69.31
2023-06-10T19:48:50.166Z,69.74
2023-06-10T19:51:18.760Z,69.73
2023-06-10T19:53:47.886Z,70.00
2023-06-10T19:56:19.989Z,69.75
2023-06-10T19:58:52.421Z,69.93
2023-06-10T20:01:20.338Z,70.20
2023-06-10T20:03:48.902Z,70.39
2023-06-10T20:06:16.999Z,70.96
2023-06-10T20:08:44.936Z,71.00
2023-06-10T20:11:12.968Z,71.34
2023-06-10T20:13:41.179Z,71.52
2023-06-10T20:16:11.257Z,71.68
2023-06-10T20:18:39.453Z,72.13
2023-06-10T20:21:09.391Z,72.60
2023-06-10T20:23:37.226Z,72.65
2023-06-10T20:26:05.426Z,72.68
2023-06-10T20:28:33.350Z,73.05
2023-06-10T20:31:02.016Z,73.05
2023-06-10T20:33:30.665Z,73.07
2023-06-10T20:35:58.736Z,73.22
2023-06-10T20:38:26.819Z,73.30
2023-06-10T20:40:54.802Z,73.87
2023-06-10T20:43:22.711Z,73.86
2023-06-10T20:45:51.682Z,73.73
2023-06-10T20:48:19.880Z,73.81
2023-06-10T20:50:47.980Z,73.91
2023-06-10T20:53:16.054Z,74.40
2023-06-10T20:55:44.050Z,74.78
2023-06-10T20:58:11.981Z,74.68
2023-06-10T21:00:39.787Z,74.67
2023-06-10T21:03:08.311Z,74.75
2023-06-10T21:05:37.192Z,75.09
2023-06-10T21:08:05.668Z,75.35
2023-06-10T21:10:33.501Z,75.97
2023-06-10T21:13:01.354Z,76.23
2023-06-10T21:15:29.328Z,76.51
2023-06-10T21:17:57.202Z,76.68
2023-06-10T21:20:25.143Z,76.77
2023-06-10T21:22:53.250Z,76.78
2023-06-10T21:25:21.331Z,76.87
2023-06-10T21:27:49.765Z,77.00
2023-06-10T21:30:17.668Z,77.06
2023-06-10T21:32:46.190Z,77.10
2023-06-10T21:35:14.191Z,77.18
2023-06-10T21:37:42.149Z,77.33
2023-06-10T21:40:10.454Z,77.48
2023-06-10T21:42:38.392Z,77.32
2023-06-10T21:45:06.683Z,77.33
2023-06-10T21:47:34.600Z,77.35
2023-06-10T21:50:02.682Z,77.23
2023-06-10T21:52:31.532Z,77.47
2023-06-10T21:54:59.426Z,77.58
2023-06-10T21:57:27.358Z,77.36
2023-06-10T21:59:55.210Z,77.12
2023-06-10T22:02:23.658Z,77.13
2023-06-10T22:04:51.671Z,77.46
2023-06-10T22:07:19.552Z,77.74
2023-06-10T22:09:50.009Z,77.51
2023-06-10T22:12:18.389Z,77.48
2023-06-10T22:14:46.371Z,77.56
2023-06-10T22:17:14.444Z,77.85
2023-06-10T22:19:44.363Z,77.92
2023-06-10T22:22:12.290Z,77.83
2023-06-10T22:24:40.186Z,77.69
2023-06-10T22:27:09.435Z,77.87
2023-06-10T22:29:38.209Z,77.78
2023-06-10T22:32:07.146Z,78.27
2023-06-10T22:34:36.253Z,78.48
2023-06-10T22:37:04.253Z,78.57
2023-06-10T22:39:32.048Z,78.81
2023-06-10T22:41:59.857Z,78.96
2023-06-10T22:44:28.194Z,78.88
2023-06-10T22:46:55.995Z,79.09
2023-06-10T22:49:23.855Z,79.21
2023-06-10T22:51:51.734Z,79.41
2023-06-10T22:54:19.703Z,80.09
2023-06-10T22:56:47.525Z,80.33
2023-06-10T22:59:15.455Z,80.52
2023-06-10T23:01:43.461Z,80.32
2023-06-10T23:04:11.447Z,80.59
2023-06-10T23:06:39.575Z,80.52
2023-06-10T23:09:07.505Z,81.00
2023-06-10T23:11:35.413Z,80.92
2023-06-10T23:14:03.663Z,80.73
2023-06-10T23:16:31.636Z,80.86
2023-06-10T23:18:59.909Z,80.67
2023-06-10T23:21:34.658Z,80.86
2023-06-10T23:24:02.649Z,81.14
2023-06-10T23:26:33.055Z,81.19
2023-06-10T23:29:01.005Z,81.46
2023-06-10T23:31:29.148Z,81.76
2023-06-10T23:33:59.119Z,81.58
2023-06-10T23:36:26.943Z,81.26
2023-06-10T23:38:54.777Z,81.98
2023-06-10T23:41:22.572Z,82.01
2023-06-10T23:43:50.452Z,81.96
2023-06-10T23:46:18.624Z,82.03
2023-06-10T23:48:46.515Z,82.04
2023-06-10T23:51:14.526Z,81.81
2023-06-10T23:53:42.445Z,82.25
2023-06-10T23:56:10.533Z,81.99
2023-06-10T23:58:38.434Z,81.87
